METAR Data
IDs: Format: Raw Decoded Include TAF

Data at: 0159 UTC 14 May 2021

KRID 140155Z AUTO 03003KT 10SM CLR 10/03 A3032 RMK AO2
KRID 140135Z AUTO 00000KT 10SM CLR 11/02 A3031 RMK AO2
KRID 140115Z AUTO 04003KT 10SM CLR 12/02 A3031 RMK AO2
KRID 140055Z AUTO 03004KT 10SM CLR 13/02 A3031 RMK AO2
KRID 140035Z AUTO 03004KT 10SM SCT085 13/02 A3031 RMK AO2
KRID 140015Z AUTO 01004KT 10SM SCT085 15/02 A3031 RMK AO2
KRID 132355Z AUTO 36004KT 10SM SCT085 16/02 A3031 RMK AO2
KRID 132335Z AUTO 04004KT 10SM CLR 16/02 A3031 RMK AO2
KRID 132315Z AUTO 07005KT 10SM SCT085 17/02 A3030 RMK AO2
KRID 132255Z AUTO 05006KT 10SM SCT085 17/02 A3031 RMK AO2
KRID 132235Z AUTO 03005KT 10SM SCT085 17/02 A3031 RMK AO2
KRID 132215Z AUTO 02004KT 10SM CLR 15/02 A3032 RMK AO2
KRID 132155Z AUTO 04004KT 10SM SCT085 17/03 A3032 RMK AO2
KRID 132135Z AUTO 07008KT 347V097 10SM SCT085 17/02 A3032 RMK AO2
KRID 132055Z AUTO 02009KT 10SM CLR 18/03 A3033 RMK AO2
KRID 132035Z AUTO 11005KT 10SM SCT080 17/02 A3033 RMK AO2
KRID 132015Z AUTO 01007KT 347V047 10SM SCT080 18/03 A3034 RMK AO2
KRID 131955Z AUTO 04004KT 10SM CLR 18/02 A3035 RMK AO2
KRID 131935Z AUTO 00000KT 10SM SCT080 17/02 A3035 RMK AO2
KRID 131915Z AUTO 03004KT 10SM SCT080 17/02 A3036 RMK AO2
KRID 131855Z AUTO 02009KT 10SM BKN080 16/02 A3037 RMK AO2
KRID 131835Z AUTO 04007KT 10SM SCT080 17/02 A3037 RMK AO2
KRID 131815Z AUTO 07006KT 10SM BKN080 15/01 A3038 RMK AO2
KRID 131755Z AUTO 10010G18KT 10SM SCT080 16/01 A3038 RMK AO2
KRID 131735Z AUTO 03005KT 10SM SCT080 17/02 A3039 RMK AO2
KRID 131715Z AUTO 03006KT 10SM CLR 16/02 A3039 RMK AO2
KRID 131655Z AUTO 06007G15KT 10SM CLR 16/02 A3040 RMK AO2
KRID 131635Z AUTO 06006KT 10SM CLR 16/02 A3041 RMK AO2
KRID 131615Z AUTO 04007KT 10SM CLR 16/01 A3041 RMK AO2
KRID 131555Z AUTO 09006G14KT 10SM CLR 16/01 A3041 RMK AO2
KRID 131535Z AUTO 06010G15KT 10SM CLR 15/01 A3041 RMK AO2
KRID 131515Z AUTO 07007KT 10SM CLR 15/02 A3042 RMK AO2
KRID 131455Z AUTO 07005KT 10SM CLR 15/01 A3042 RMK AO2
KRID 131435Z AUTO 07008KT 10SM CLR 15/01 A3042 RMK AO2
KRID 131415Z AUTO 07007KT 10SM CLR 13/01 A3042 RMK AO2
KRID 131355Z AUTO 04006KT 10SM CLR 13/01 A3042 RMK AO2
KRID 131335Z AUTO 01005KT 10SM CLR 12/02 A3042 RMK AO2
KRID 131315Z AUTO 02005KT 10SM CLR 11/03 A3042 RMK AO2
KRID 131255Z AUTO 01005KT 10SM CLR 11/03 A3042 RMK AO2
KRID 131235Z AUTO 01005KT 10SM CLR 10/03 A3042 RMK AO2
KRID 131215Z AUTO 01006KT 10SM CLR 08/03 A3041 RMK AO2
KRID 131155Z AUTO 01004KT 10SM CLR 07/03 A3041 RMK AO2
KRID 131135Z AUTO 02005KT 10SM CLR 05/02 A3040 RMK AO2
KRID 131115Z AUTO 01005KT 10SM CLR 03/01 A3040 RMK AO2
KRID 131055Z AUTO 36005KT 10SM CLR 02/01 A3039 RMK AO2
KRID 131035Z AUTO 36005KT 10SM CLR 02/01 A3039 RMK AO2
KRID 131015Z AUTO 34007KT 10SM CLR 02/01 A3038 RMK AO2
KRID 130955Z AUTO 03004KT 10SM CLR 04/00 A3038 RMK AO2
KRID 130935Z AUTO 03004KT 10SM CLR 03/00 A3038 RMK AO2
KRID 130915Z AUTO 03003KT 10SM CLR 02/00 A3038 RMK AO2
KRID 130855Z AUTO 04003KT 10SM CLR 02/01 A3038 RMK AO2
KRID 130835Z AUTO 03003KT 10SM CLR 03/00 A3038 RMK AO2
KRID 130815Z AUTO 04003KT 10SM CLR 06/00 A3037 RMK AO2
KRID 130755Z AUTO 05004KT 10SM CLR 05/00 A3037 RMK AO2
KRID 130735Z AUTO 06004KT 10SM CLR 05/00 A3038 RMK AO2
KRID 130715Z AUTO 05003KT 10SM CLR 06/01 A3038 RMK AO2
KRID 130655Z AUTO 04003KT 10SM CLR 06/01 A3038 RMK AO2
KRID 130635Z AUTO 06004KT 10SM CLR 05/01 A3038 RMK AO2
KRID 130615Z AUTO 06004KT 10SM CLR 05/01 A3038 RMK AO2
KRID 130555Z AUTO 06004KT 10SM CLR 05/01 A3038 RMK AO2
KRID 130535Z AUTO 06005KT 10SM CLR 05/01 A3038 RMK AO2
KRID 130515Z AUTO 06005KT 10SM CLR 05/02 A3038 RMK AO2
KRID 130455Z AUTO 06005KT 10SM CLR 06/02 A3038 RMK AO2
KRID 130435Z AUTO 06004KT 10SM CLR 05/02 A3038 RMK AO2
KRID 130415Z AUTO 06004KT 10SM CLR 05/02 A3039 RMK AO2
KRID 130355Z AUTO 05004KT 10SM CLR 06/02 A3038 RMK AO2
KRID 130335Z AUTO 05004KT 10SM CLR 07/02 A3039 RMK AO2
KRID 130315Z AUTO 05004KT 10SM CLR 07/02 A3038 RMK AO2
KRID 130255Z AUTO 04003KT 10SM CLR 08/02 A3038 RMK AO2
KRID 130235Z AUTO 04004KT 10SM CLR 08/02 A3038 RMK AO2
KRID 130215Z AUTO 03004KT 10SM CLR 08/03 A3038 RMK AO2
KRID 130155Z AUTO 03004KT 10SM CLR 08/02 A3037 RMK AO2
KRID 130135Z AUTO 03004KT 10SM CLR 09/02 A3036 RMK AO2
KRID 130115Z AUTO 03006KT 10SM CLR 10/02 A3036 RMK AO2
KRID 130055Z AUTO 03006KT 10SM CLR 11/02 A3035 RMK AO2
KRID 130035Z AUTO 02006KT 10SM CLR 12/02 A3035 RMK AO2
KRID 130015Z AUTO 03007KT 10SM CLR 12/02 A3034 RMK AO2
KRID 122355Z AUTO 03010KT 10SM CLR 13/03 A3034 RMK AO2
KRID 122335Z AUTO 05010KT 10SM SCT065 SCT075 13/03 A3034 RMK AO2
KRID 122315Z AUTO 03008KT 10SM SCT065 BKN075 14/03 A3035 RMK AO2
KRID 122255Z AUTO 03008KT 10SM SCT070 BKN075 15/03 A3034 RMK AO2
KRID 122235Z AUTO 04010KT 10SM BKN070 15/03 A3035 RMK AO2
KRID 122215Z AUTO 07013G16KT 10SM BKN070 14/03 A3035 RMK AO2
KRID 122155Z AUTO 05009G15KT 10SM BKN070 15/03 A3035 RMK AO2
KRID 122135Z AUTO 03011KT 10SM BKN070 15/03 A3035 RMK AO2
KRID 122115Z AUTO 05011G14KT 10SM BKN060 16/03 A3035 RMK AO2
KRID 122055Z AUTO 06011G15KT 10SM SCT060 15/03 A3035 RMK AO2
KRID 122035Z AUTO 05009KT 10SM SCT060 15/03 A3035 RMK AO2
KRID 122015Z AUTO 02008G15KT 10SM SCT060 15/03 A3036 RMK AO2
KRID 121955Z AUTO 04008KT 10SM SCT060 13/03 A3037 RMK AO2
KRID 121935Z AUTO 07010KT 10SM SCT060 15/04 A3037 RMK AO2
KRID 121915Z AUTO 04008G16KT 007V067 10SM SCT060 SCT070 15/03 A3038 RMK AO2
KRID 121855Z AUTO 05008KT 10SM SCT060 SCT070 13/03 A3038 RMK AO2
KRID 121835Z AUTO 05008G14KT 10SM SCT060 14/03 A3038 RMK AO2
KRID 121815Z AUTO 05010G14KT 10SM SCT060 13/03 A3039 RMK AO2
KRID 121755Z AUTO 06007G20KT 10SM CLR 13/03 A3039 RMK AO2
KRID 121735Z AUTO 01010G18KT 10SM CLR 13/03 A3039 RMK AO2
KRID 121715Z AUTO 06010G15KT 10SM SCT055 13/03 A3040 RMK AO2
KRID 121655Z AUTO 06010G17KT 10SM CLR 13/03 A3040 RMK AO2
KRID 121635Z AUTO 01012KT 10SM CLR 12/03 A3041 RMK AO2
KRID 121615Z AUTO 06012G16KT 10SM CLR 12/03 A3041 RMK AO2
KRID 121555Z AUTO 04009G15KT 10SM CLR 12/02 A3041 RMK AO2
KRID 121535Z AUTO 07007G15KT 10SM CLR 12/02 A3041 RMK AO2
KRID 121515Z AUTO 05011KT 10SM CLR 12/02 A3041 RMK AO2
KRID 121455Z AUTO 04010G16KT 10SM CLR 11/02 A3041 RMK AO2
KRID 121435Z AUTO 03009KT 10SM CLR 11/03 A3041 RMK AO2
KRID 121415Z AUTO 04012KT 10SM CLR 10/02 A3042 RMK AO2